Uniondale, New York
Current Conditions -  °F | °C
As of 10:53 PM on Wednesday 22 Oct 2014 (Local Time) from KFRG Reporting Station
Light Rain Light Rain  
Wind Chill: 51°   Ceiling: 1200
Heat Index: 51°   Visibility: 8mi
Dew Point: 47°   Wind: 23mph
Humidity: 86%   Direction: 20°NNE
Pressure: 29.68"   Gusts: 39mph
Location:  40.72°N, 73.59°W
Report Text: KFRG 230253Z 02020G34KT 8SM -RA BKN012 BKN019 OVC025 11/08 A2968 RMK AO2 PK WND 01034/0244 SLP051 P0025 60036 T01060083 58014
Loading
Personal Weather Stations






























Interactive Weather Map
Tropical Storm Tracking
New forecast layout! Learn more

10-Day Weather Forecast

Advertisements
Track Severe Weather on mobile